Time;durP1;ratioP1;P1;durP2;ratioP2;P2;SDS_P1;SDS_P2;PMS_P1;PMS_P2;Temp;Humidity;BMP_temperature;BMP_pressure;BME280_temperature;BME280_humidity;BME280_pressure;Samples;Min_cycle;Max_cycle;Signal;HPM_P1;HPM_P2
2023/08/24 00:01:32;;;;;;;7.32;2.88;;;18.10;99.90;;;;;;6132326;23;20024;-86
2023/08/24 00:03:57;;;;;;;4.93;1.90;;;18.10;99.90;;;;;;6157084;23;20024;-86
2023/08/24 00:06:23;;;;;;;5.95;2.28;;;18.00;99.90;;;;;;6132066;23;20064;-86
2023/08/24 00:08:49;;;;;;;7.68;2.83;;;17.90;99.90;;;;;;6132008;23;20092;-86
2023/08/24 00:11:17;;;;;;;6.07;2.60;;;17.90;99.90;;;;;;6157081;23;20005;-86
2023/08/24 00:13:52;;;;;;;4.70;2.10;;;17.90;99.90;;;;;;6132906;23;20009;-86
2023/08/24 00:16:19;;;;;;;6.65;2.40;;;17.90;99.90;;;;;;6157153;23;20117;-86
2023/08/24 00:18:45;;;;;;;5.90;2.42;;;17.90;99.90;;;;;;6157129;23;20493;-85
2023/08/24 00:21:13;;;;;;;6.43;1.92;;;17.90;99.90;;;;;;6157529;23;20095;-86
2023/08/24 00:23:38;;;;;;;6.90;2.40;;;17.80;99.90;;;;;;6132427;23;20044;-86
2023/08/24 00:26:04;;;;;;;5.80;2.03;;;17.80;99.90;;;;;;6156786;23;20024;-85
2023/08/24 00:28:30;;;;;;;4.20;1.80;;;17.70;99.90;;;;;;6156398;23;20060;-85
2023/08/24 00:30:55;;;;;;;4.15;1.85;;;17.70;99.90;;;;;;6157015;23;20462;-86
2023/08/24 00:33:21;;;;;;;4.07;1.80;;;17.70;99.90;;;;;;6156842;23;20020;-85
2023/08/24 00:35:46;;;;;;;3.78;1.90;;;17.70;99.90;;;;;;6131822;23;20446;-85
2023/08/24 00:38:12;;;;;;;4.90;1.90;;;17.60;99.90;;;;;;6156379;23;20013;-85
2023/08/24 00:40:38;;;;;;;6.63;2.33;;;17.50;99.90;;;;;;6157636;23;20466;-86
2023/08/24 00:43:04;;;;;;;7.45;3.00;;;17.50;99.90;;;;;;6132422;23;20044;-86
2023/08/24 00:45:32;;;;;;;6.15;2.75;;;17.50;99.90;;;;;;6156678;23;20013;-86
2023/08/24 00:47:58;;;;;;;6.60;2.70;;;17.50;99.90;;;;;;6156231;23;20009;-86
2023/08/24 00:50:24;;;;;;;5.53;2.70;;;17.50;99.90;;;;;;6133070;23;20017;-86
2023/08/24 00:52:50;;;;;;;5.70;2.85;;;17.40;99.90;;;;;;6158866;23;20016;-86
2023/08/24 00:55:20;;;;;;;4.97;2.30;;;17.40;99.90;;;;;;6134872;23;20056;-85
2023/08/24 00:57:45;;;;;;;5.80;2.00;;;17.40;99.90;;;;;;6133824;23;20509;-85
2023/08/24 01:00:11;;;;;;;4.85;1.92;;;17.40;99.90;;;;;;6163498;23;20016;-85
2023/08/24 01:02:38;;;;;;;7.88;3.15;;;17.30;99.90;;;;;;6172086;23;20010;-85
2023/08/24 01:05:04;;;;;;;6.45;2.85;;;17.30;99.90;;;;;;6160424;23;20009;-85
2023/08/24 01:07:32;;;;;;;5.03;2.00;;;17.20;99.90;;;;;;6135138;23;20013;-85
2023/08/24 01:09:57;;;;;;;8.18;3.90;;;17.20;99.90;;;;;;6160088;23;20101;-85
2023/08/24 01:12:52;;;;;;;7.22;2.75;;;17.20;99.90;;;;;;6160214;23;20036;-86
2023/08/24 01:15:29;;;;;;;5.50;2.47;;;17.20;99.90;;;;;;6135368;23;20048;-85
2023/08/24 01:17:59;;;;;;;5.40;1.75;;;17.20;99.90;;;;;;6133913;23;20075;-86
2023/08/24 01:20:26;;;;;;;4.50;1.60;;;17.10;99.90;;;;;;6159278;23;20019;-85
2023/08/24 01:23:04;;;;;;;4.20;1.77;;;17.10;99.90;;;;;;6134268;23;20045;-86
2023/08/24 01:25:41;;;;;;;5.43;1.92;;;17.10;99.90;;;;;;6133979;23;20350;-86
2023/08/24 01:28:09;;;;;;;5.05;2.22;;;17.00;99.90;;;;;;6157655;23;20020;-85
2023/08/24 01:30:35;;;;;;;7.22;2.95;;;16.90;99.90;;;;;;6158768;23;20489;-86
2023/08/24 01:33:04;;;;;;;6.72;2.80;;;16.90;99.90;;;;;;6185289;23;20064;-85
2023/08/24 01:35:30;;;;;;;4.28;1.52;;;17.00;99.90;;;;;;6158665;23;20346;-86
2023/08/24 01:37:56;;;;;;;4.10;2.00;;;16.90;99.90;;;;;;6157999;23;20016;-86
2023/08/24 01:40:36;;;;;;;3.92;1.65;;;16.80;99.90;;;;;;6158783;23;20009;-86
2023/08/24 01:43:05;;;;;;;6.00;2.60;;;16.80;99.90;;;;;;6133214;23;20482;-86
2023/08/24 01:45:32;;;;;;;7.35;3.28;;;16.80;99.90;;;;;;6158107;23;20013;-85
2023/08/24 01:48:02;;;;;;;8.63;4.38;;;16.90;99.90;;;;;;6157702;23;20035;-86
2023/08/24 01:50:29;;;;;;;8.02;3.55;;;16.90;99.90;;;;;;6158344;23;20036;-86
2023/08/24 01:52:55;;;;;;;8.07;4.00;;;16.90;99.90;;;;;;6133805;23;20009;-86
2023/08/24 01:55:21;;;;;;;9.07;5.22;;;16.90;99.90;;;;;;6134252;23;20067;-86
2023/08/24 01:57:48;;;;;;;10.10;5.70;;;17.00;99.90;;;;;;6158242;23;20079;-86
2023/08/24 02:00:13;;;;;;;10.10;6.43;;;17.00;99.90;;;;;;6134293;23;20075;-86
2023/08/24 02:02:39;;;;;;;11.43;6.05;;;17.10;99.90;;;;;;6157862;23;20012;-86
2023/08/24 02:05:05;;;;;;;9.02;5.72;;;17.10;99.90;;;;;;6157995;23;20359;-86
2023/08/24 02:07:31;;;;;;;11.43;6.32;;;17.10;99.90;;;;;;6157436;23;20014;-86
2023/08/24 02:09:57;;;;;;;11.40;5.68;;;17.20;99.90;;;;;;6158168;23;20402;-86
2023/08/24 02:12:22;;;;;;;9.32;4.15;;;17.10;99.90;;;;;;6158399;23;20017;-85
2023/08/24 02:14:48;;;;;;;8.65;3.33;;;17.10;99.90;;;;;;6133260;23;20017;-85
2023/08/24 02:17:14;;;;;;;10.10;6.80;;;17.00;99.90;;;;;;6158484;23;20009;-86
2023/08/24 02:19:41;;;;;;;8.77;4.65;;;17.10;99.90;;;;;;6133599;23;20005;-85
2023/08/24 02:22:07;;;;;;;9.50;4.75;;;17.10;99.90;;;;;;6158357;23;20017;-86
2023/08/24 02:24:33;;;;;;;10.77;6.00;;;17.10;99.90;;;;;;6158142;23;20013;-85
2023/08/24 02:26:59;;;;;;;9.98;4.70;;;17.10;99.90;;;;;;6132744;23;20005;-86
2023/08/24 02:29:24;;;;;;;10.65;6.50;;;17.10;99.90;;;;;;6157851;23;20016;-85
2023/08/24 02:31:50;;;;;;;10.82;6.65;;;17.10;99.90;;;;;;6158645;23;20009;-85
2023/08/24 02:34:16;;;;;;;11.73;7.53;;;17.20;99.90;;;;;;6157954;23;20020;-85
2023/08/24 02:36:42;;;;;;;9.70;4.82;;;17.20;99.90;;;;;;6158136;23;20013;-85
2023/08/24 02:39:08;;;;;;;11.85;5.28;;;17.10;99.90;;;;;;6133097;23;20017;-85
2023/08/24 02:41:34;;;;;;;10.68;6.90;;;17.20;99.90;;;;;;6134019;23;20017;-86
2023/08/24 02:44:00;;;;;;;12.00;7.47;;;17.20;99.90;;;;;;6158199;23;20017;-85
2023/08/24 02:46:26;;;;;;;11.05;8.15;;;17.30;99.90;;;;;;6157696;23;20013;-85
2023/08/24 02:48:51;;;;;;;13.85;8.35;;;17.20;99.90;;;;;;6132585;23;20013;-85
2023/08/24 02:51:17;;;;;;;11.80;7.20;;;17.30;99.90;;;;;;6157693;23;20020;-85
2023/08/24 02:53:43;;;;;;;10.52;6.45;;;17.30;99.90;;;;;;6133081;23;20009;-86
2023/08/24 02:56:09;;;;;;;12.80;8.68;;;17.30;99.90;;;;;;6158099;23;20451;-86
2023/08/24 02:58:34;;;;;;;10.82;4.70;;;17.30;99.90;;;;;;6157468;23;20017;-86
2023/08/24 03:01:07;;;;;;;10.50;7.40;;;17.20;99.90;;;;;;6133321;23;20878;-86
2023/08/24 03:03:33;;;;;;;12.40;7.85;;;17.20;99.90;;;;;;6133087;23;20048;-86
2023/08/24 03:06:07;;;;;;;12.45;5.78;;;17.30;99.90;;;;;;6157527;23;20012;-86
2023/08/24 03:08:33;;;;;;;10.48;7.63;;;17.20;99.90;;;;;;6131357;23;20020;-86
2023/08/24 03:11:00;;;;;;;11.70;7.22;;;17.30;99.90;;;;;;6157416;23;20409;-86
2023/08/24 03:13:26;;;;;;;10.65;7.60;;;17.30;99.90;;;;;;6157516;23;20037;-86
2023/08/24 03:15:52;;;;;;;12.63;8.70;;;17.30;99.90;;;;;;6132908;23;20009;-86
2023/08/24 03:18:18;;;;;;;11.85;8.63;;;17.30;99.90;;;;;;6132213;23;20497;-86
2023/08/24 03:20:45;;;;;;;15.18;9.07;;;17.30;99.90;;;;;;6157686;23;20044;-86
2023/08/24 03:23:11;;;;;;;14.43;8.52;;;17.40;99.90;;;;;;6132973;23;20017;-86
2023/08/24 03:25:39;;;;;;;12.27;9.13;;;17.40;99.90;;;;;;6157877;23;20028;-86
2023/08/24 03:28:09;;;;;;;13.07;8.77;;;17.40;99.90;;;;;;6131860;23;20020;-86
2023/08/24 03:30:39;;;;;;;10.55;5.70;;;17.40;99.90;;;;;;6132448;23;20060;-86
2023/08/24 03:33:05;;;;;;;10.98;8.25;;;17.30;99.90;;;;;;6157397;23;20425;-86
2023/08/24 03:35:32;;;;;;;11.63;8.68;;;17.30;99.90;;;;;;6132564;23;20450;-86
2023/08/24 03:37:57;;;;;;;14.73;9.10;;;17.40;99.90;;;;;;6132524;23;20344;-86
2023/08/24 03:40:23;;;;;;;10.40;6.50;;;17.40;99.90;;;;;;6133065;23;20518;-86
2023/08/24 03:42:49;;;;;;;11.45;8.80;;;17.30;99.90;;;;;;6157558;23;20017;-86
2023/08/24 03:45:14;;;;;;;11.68;8.75;;;17.30;99.90;;;;;;6157186;23;20036;-86
2023/08/24 03:47:40;;;;;;;12.63;9.52;;;17.30;99.90;;;;;;6156628;23;20013;-86
2023/08/24 03:50:06;;;;;;;11.30;8.38;;;17.30;99.90;;;;;;6157285;23;20450;-86
2023/08/24 03:52:32;;;;;;;12.35;8.40;;;17.30;99.90;;;;;;6132809;23;20362;-86
2023/08/24 03:54:57;;;;;;;12.13;8.32;;;17.30;99.90;;;;;;6157439;23;20092;-86
2023/08/24 03:57:23;;;;;;;13.48;9.48;;;17.20;99.90;;;;;;6157830;23;20097;-86
2023/08/24 03:59:49;;;;;;;9.48;5.30;;;17.30;99.90;;;;;;6132208;23;20013;-86
2023/08/24 04:02:14;;;;;;;12.73;9.75;;;17.10;99.90;;;;;;6157727;23;20524;-86
2023/08/24 04:04:40;;;;;;;13.73;9.05;;;17.10;99.90;;;;;;6157460;23;20013;-86
2023/08/24 04:07:06;;;;;;;12.18;9.27;;;17.10;99.90;;;;;;6156997;23;20470;-86
2023/08/24 04:09:31;;;;;;;13.02;9.05;;;17.10;99.90;;;;;;6132040;23;20610;-86
2023/08/24 04:11:57;;;;;;;12.18;5.32;;;17.10;99.90;;;;;;6157510;23;20005;-86
2023/08/24 04:14:22;;;;;;;10.57;5.20;;;17.00;99.90;;;;;;6157136;23;20013;-86
2023/08/24 04:16:48;;;;;;;10.13;8.23;;;17.00;99.90;;;;;;6132557;23;20013;-86
2023/08/24 04:19:14;;;;;;;11.70;8.80;;;17.00;99.90;;;;;;6156722;23;20092;-86
2023/08/24 04:21:40;;;;;;;11.30;6.10;;;17.00;99.90;;;;;;6184212;23;20020;-86
2023/08/24 04:24:05;;;;;;;11.68;8.65;;;17.00;99.90;;;;;;6156780;23;20012;-86
2023/08/24 04:26:31;;;;;;;11.68;6.13;;;17.00;99.90;;;;;;6156737;23;20328;-86
2023/08/24 04:28:57;;;;;;;11.40;8.45;;;17.00;99.90;;;;;;6156241;23;20463;-86
2023/08/24 04:31:22;;;;;;;11.98;8.45;;;17.00;99.90;;;;;;6156406;23;20064;-86
2023/08/24 04:33:48;;;;;;;12.30;9.05;;;17.00;99.90;;;;;;6132752;23;20028;-86
2023/08/24 04:36:14;;;;;;;10.18;5.57;;;17.00;99.90;;;;;;6156849;23;20084;-86
2023/08/24 04:38:39;;;;;;;12.55;7.68;;;16.90;99.90;;;;;;6155683;23;20574;-86
2023/08/24 04:41:08;;;;;;;10.73;7.90;;;16.90;99.90;;;;;;6157037;23;20016;-86
2023/08/24 04:43:34;;;;;;;11.48;8.18;;;16.90;99.90;;;;;;6157200;23;20071;-86
2023/08/24 04:45:59;;;;;;;13.80;8.07;;;16.80;99.90;;;;;;6156939;23;20017;-86
2023/08/24 04:48:26;;;;;;;12.88;8.23;;;16.90;99.90;;;;;;6131453;23;20024;-86
2023/08/24 04:50:53;;;;;;;11.57;7.88;;;16.90;99.90;;;;;;6156988;23;20035;-85
2023/08/24 04:53:19;;;;;;;12.05;4.70;;;16.90;99.90;;;;;;6132477;23;20005;-86
2023/08/24 04:55:45;;;;;;;10.27;7.72;;;16.80;99.90;;;;;;6132395;23;20035;-86
2023/08/24 04:58:13;;;;;;;11.30;8.05;;;16.80;99.90;;;;;;6131877;23;20013;-86
2023/08/24 05:00:38;;;;;;;11.57;7.55;;;16.80;99.90;;;;;;6156644;23;20016;-86
2023/08/24 05:03:05;;;;;;;13.45;8.55;;;16.90;99.90;;;;;;6132685;23;20013;-86
2023/08/24 05:05:32;;;;;;;10.85;4.55;;;16.90;99.90;;;;;;6132207;23;20024;-86
2023/08/24 05:07:59;;;;;;;11.82;8.05;;;16.90;99.90;;;;;;6156491;23;20021;-86
2023/08/24 05:10:25;;;;;;;11.68;5.28;;;16.90;99.90;;;;;;6155984;23;20009;-86
2023/08/24 05:12:51;;;;;;;13.43;7.57;;;16.90;99.90;;;;;;6132643;23;20016;-85
2023/08/24 05:15:16;;;;;;;13.50;7.45;;;16.90;99.90;;;;;;6157375;23;20009;-86
2023/08/24 05:17:42;;;;;;;13.00;7.35;;;17.00;99.90;;;;;;6156686;23;20498;-86
2023/08/24 05:20:10;;;;;;;12.70;7.85;;;17.10;99.90;;;;;;6156604;23;20017;-86
2023/08/24 05:22:36;;;;;;;11.50;7.20;;;17.10;99.90;;;;;;6132927;23;20020;-85
2023/08/24 05:25:02;;;;;;;11.95;7.32;;;17.10;99.90;;;;;;6156341;23;20095;-85
2023/08/24 05:27:28;;;;;;;10.90;7.13;;;17.10;99.90;;;;;;6156614;23;20020;-85
2023/08/24 05:29:54;;;;;;;12.68;7.35;;;17.20;99.90;;;;;;6156433;23;20005;-86
2023/08/24 05:32:19;;;;;;;11.23;6.63;;;17.20;99.90;;;;;;6156844;23;20016;-86
2023/08/24 05:34:46;;;;;;;10.77;7.00;;;17.20;99.90;;;;;;6157136;23;20096;-86
2023/08/24 05:37:12;;;;;;;11.40;6.95;;;17.30;99.90;;;;;;6132873;23;20513;-86
2023/08/24 05:39:38;;;;;;;8.63;3.45;;;17.30;99.90;;;;;;6133114;23;20009;-85
2023/08/24 05:42:04;;;;;;;12.30;4.63;;;17.30;99.90;;;;;;6134108;23;20360;-86
2023/08/24 05:44:30;;;;;;;10.65;5.97;;;17.20;99.90;;;;;;6158570;23;20023;-86
2023/08/24 05:46:55;;;;;;;13.73;7.18;;;17.30;99.90;;;;;;6158318;23;20017;-86
2023/08/24 05:49:21;;;;;;;13.38;4.63;;;17.40;99.90;;;;;;6157392;23;20017;-85
2023/08/24 05:51:49;;;;;;;10.75;6.00;;;17.40;99.90;;;;;;6157683;23;20056;-86
2023/08/24 05:54:18;;;;;;;12.48;6.28;;;17.40;99.90;;;;;;6158479;23;20051;-86
2023/08/24 05:56:47;;;;;;;9.70;4.00;;;17.50;99.90;;;;;;6184460;23;20749;-86
2023/08/24 05:59:14;;;;;;;11.27;6.20;;;17.50;99.90;;;;;;6133727;23;20044;-86
2023/08/24 06:01:41;;;;;;;11.55;6.00;;;17.50;99.90;;;;;;6133997;23;20017;-86
2023/08/24 06:04:07;;;;;;;10.65;6.45;;;17.60;99.90;;;;;;6134046;23;20063;-86
2023/08/24 06:06:32;;;;;;;7.80;4.05;;;17.70;99.90;;;;;;6158131;23;20055;-86
2023/08/24 06:08:58;;;;;;;9.98;6.30;;;17.70;99.90;;;;;;6183984;23;20017;-86
2023/08/24 06:11:24;;;;;;;14.38;6.70;;;17.70;99.90;;;;;;6157308;23;20099;-86
2023/08/24 06:13:52;;;;;;;13.48;8.27;;;17.80;99.90;;;;;;6158179;23;20009;-86
2023/08/24 06:16:17;;;;;;;12.25;7.95;;;17.80;99.90;;;;;;6133713;23;20131;-86
2023/08/24 06:18:43;;;;;;;14.98;8.00;;;17.90;99.90;;;;;;6157869;23;20072;-86
2023/08/24 06:21:08;;;;;;;12.98;8.73;;;18.00;99.90;;;;;;6134074;23;20009;-86
2023/08/24 06:23:34;;;;;;;11.18;5.75;;;18.00;99.90;;;;;;6133912;23;20040;-86
2023/08/24 06:26:01;;;;;;;16.55;9.68;;;18.00;99.90;;;;;;6158107;23;20365;-86
2023/08/24 06:28:26;;;;;;;12.50;9.73;;;18.10;99.90;;;;;;6133126;23;20069;-86
2023/08/24 06:30:54;;;;;;;13.68;8.80;;;18.20;99.90;;;;;;6132959;23;20091;-86
2023/08/24 06:33:20;;;;;;;15.07;10.20;;;18.20;99.90;;;;;;6158089;23;20016;-86
2023/08/24 06:35:45;;;;;;;13.63;10.18;;;18.30;99.90;;;;;;6157675;23;20052;-86
2023/08/24 06:38:11;;;;;;;18.65;11.27;;;18.30;99.90;;;;;;6157498;23;20332;-86
2023/08/24 06:40:37;;;;;;;14.30;11.13;;;18.40;99.90;;;;;;6157777;23;20087;-86
2023/08/24 06:43:02;;;;;;;14.35;10.93;;;18.40;99.90;;;;;;6158046;23;20071;-86
2023/08/24 06:45:28;;;;;;;14.18;9.07;;;18.50;99.90;;;;;;6157878;23;20100;-86
2023/08/24 06:47:54;;;;;;;15.45;12.00;;;18.50;99.90;;;;;;6157404;23;20017;-87
2023/08/24 06:50:20;;;;;;;15.55;11.95;;;18.50;99.90;;;;;;6157339;23;20005;-86
2023/08/24 06:52:46;;;;;;;16.98;11.48;;;18.60;99.90;;;;;;6157155;23;20044;-87
2023/08/24 06:55:12;;;;;;;15.63;11.88;;;18.70;99.90;;;;;;6157599;23;20005;-87
2023/08/24 06:57:38;;;;;;;16.48;13.43;;;18.80;99.90;;;;;;6157857;23;20013;-86
2023/08/24 07:00:08;;;;;;;15.85;13.13;;;18.80;99.90;;;;;;6157527;23;20021;-86
2023/08/24 07:02:35;;;;;;;19.90;12.48;;;18.90;99.90;;;;;;6158506;23;20036;-86
2023/08/24 07:05:04;;;;;;;17.38;13.07;;;19.00;99.90;;;;;;6133004;23;20013;-86
2023/08/24 07:07:30;;;;;;;18.15;13.52;;;19.00;99.90;;;;;;6132535;23;20009;-87
2023/08/24 07:09:55;;;;;;;18.35;12.98;;;19.00;99.90;;;;;;6132216;23;20009;-86
2023/08/24 07:12:21;;;;;;;17.35;12.98;;;19.20;99.90;;;;;;6132613;23;20024;-86
2023/08/24 07:14:47;;;;;;;16.85;13.27;;;19.20;99.90;;;;;;6133045;23;20067;-86
2023/08/24 07:17:12;;;;;;;15.05;12.55;;;19.30;99.90;;;;;;6183562;23;20048;-87
2023/08/24 07:19:38;;;;;;;17.65;12.73;;;19.40;99.90;;;;;;6157572;23;20047;-86
2023/08/24 07:22:03;;;;;;;16.15;13.10;;;19.40;99.90;;;;;;6132322;23;20013;-86
2023/08/24 07:24:30;;;;;;;13.82;11.55;;;19.50;99.90;;;;;;6157382;23;20068;-86
2023/08/24 07:26:55;;;;;;;16.50;12.57;;;19.60;99.90;;;;;;6157527;23;20009;-87
2023/08/24 07:29:21;;;;;;;16.08;12.57;;;19.70;99.90;;;;;;6156666;23;20035;-86
2023/08/24 07:31:47;;;;;;;16.30;11.77;;;19.70;99.90;;;;;;6157540;23;20020;-87
2023/08/24 07:34:14;;;;;;;14.52;12.27;;;19.80;99.90;;;;;;6157735;23;20526;-87
2023/08/24 07:36:39;;;;;;;17.15;12.90;;;19.80;99.90;;;;;;6132575;23;20378;-87
2023/08/24 07:39:05;;;;;;;17.27;12.25;;;19.90;99.90;;;;;;6146705;23;20059;-85
2023/08/24 07:41:31;;;;;;;16.50;11.90;;;20.00;99.90;;;;;;6169156;23;20017;-87
2023/08/24 07:43:56;;;;;;;14.88;11.02;;;20.10;99.90;;;;;;6134889;23;20017;-87
2023/08/24 07:46:22;;;;;;;13.80;10.50;;;20.10;99.90;;;;;;6134791;23;20380;-87
2023/08/24 07:48:48;;;;;;;15.52;11.95;;;20.20;99.90;;;;;;6134082;23;20103;-87
2023/08/24 07:51:13;;;;;;;14.57;11.38;;;20.30;99.90;;;;;;6133765;23;20013;-87
2023/08/24 07:53:39;;;;;;;18.52;12.38;;;20.30;99.90;;;;;;6159136;23;20020;-87
2023/08/24 07:56:05;;;;;;;16.70;12.27;;;20.40;99.90;;;;;;6133885;23;20009;-88
2023/08/24 07:58:31;;;;;;;15.65;11.98;;;20.50;99.90;;;;;;6133046;23;20017;-88
2023/08/24 08:00:58;;;;;;;17.02;11.35;;;20.60;99.90;;;;;;6132714;23;20023;-88
2023/08/24 08:03:24;;;;;;;15.80;11.48;;;20.60;99.90;;;;;;6133374;23;20067;-88
2023/08/24 08:05:50;;;;;;;13.98;10.68;;;20.70;99.90;;;;;;6156474;23;20462;-88
2023/08/24 08:08:16;;;;;;;14.57;11.15;;;20.70;99.90;;;;;;6155460;23;20013;-88
2023/08/24 08:10:42;;;;;;;15.45;11.20;;;20.80;99.90;;;;;;6131270;23;20100;-88
2023/08/24 08:13:08;;;;;;;14.43;10.60;;;20.90;99.90;;;;;;6130329;23;20361;-88
2023/08/24 08:15:36;;;;;;;16.60;10.55;;;21.00;99.90;;;;;;6155409;23;20020;-88
2023/08/24 08:18:01;;;;;;;16.20;10.10;;;21.00;99.90;;;;;;6131873;23;20013;-87
2023/08/24 08:20:27;;;;;;;14.48;10.18;;;21.10;99.90;;;;;;6156073;23;20017;-87
2023/08/24 08:22:53;;;;;;;13.30;9.77;;;21.20;99.90;;;;;;6155648;23;20093;-88
2023/08/24 08:25:18;;;;;;;13.00;9.68;;;21.30;99.90;;;;;;6155462;23;20528;-88
2023/08/24 08:27:44;;;;;;;13.20;9.43;;;21.40;99.90;;;;;;6182649;23;20028;-88
2023/08/24 08:30:10;;;;;;;14.45;10.30;;;21.40;99.90;;;;;;6156147;23;20009;-88
2023/08/24 08:32:36;;;;;;;13.73;9.57;;;21.50;99.90;;;;;;6156371;23;20009;-88
2023/08/24 08:35:04;;;;;;;13.35;9.85;;;21.60;99.90;;;;;;6132235;23;20024;-89
2023/08/24 08:37:32;;;;;;;13.75;9.55;;;21.70;99.90;;;;;;6132114;23;20355;-88
2023/08/24 08:39:57;;;;;;;15.90;10.20;;;21.80;99.90;;;;;;6132482;23;20063;-88
2023/08/24 08:42:23;;;;;;;12.65;9.27;;;21.80;99.90;;;;;;6183895;23;20484;-88
2023/08/24 08:44:49;;;;;;;13.73;10.02;;;21.90;99.90;;;;;;6132774;23;20498;-88
2023/08/24 08:47:17;;;;;;;13.52;9.98;;;22.00;99.90;;;;;;6132924;23;20044;-88
2023/08/24 08:49:44;;;;;;;12.98;9.50;;;22.10;99.90;;;;;;6156388;23;20024;-88
2023/08/24 08:52:11;;;;;;;14.30;10.25;;;22.20;99.90;;;;;;6183372;23;20009;-88
2023/08/24 08:54:36;;;;;;;12.60;9.27;;;22.40;99.90;;;;;;6181015;23;20015;-88
2023/08/24 08:57:03;;;;;;;15.38;8.73;;;22.40;99.90;;;;;;6132003;23;20088;-88
2023/08/24 08:59:30;;;;;;;14.15;9.23;;;22.50;99.90;;;;;;6156665;23;20017;-89
2023/08/24 09:01:58;;;;;;;11.57;8.27;;;22.60;99.90;;;;;;6132929;23;20084;-88
2023/08/24 09:04:27;;;;;;;14.35;8.95;;;22.70;99.90;;;;;;6181706;23;20009;-88
2023/08/24 09:06:53;;;;;;;13.13;8.48;;;22.80;99.90;;;;;;6156564;23;20009;-88
2023/08/24 09:09:19;;;;;;;14.95;9.10;;;22.90;99.90;;;;;;6131915;23;20352;-89
2023/08/24 09:11:47;;;;;;;13.57;8.35;;;23.00;99.90;;;;;;6157414;23;20478;-88
2023/08/24 09:14:12;;;;;;;15.20;8.30;;;23.10;99.90;;;;;;6157696;23;20060;-88
2023/08/24 09:16:39;;;;;;;13.98;8.77;;;23.20;99.90;;;;;;6133073;23;20017;-88
2023/08/24 09:19:07;;;;;;;11.90;8.23;;;23.30;99.90;;;;;;6133464;23;20024;-88
2023/08/24 09:21:37;;;;;;;12.75;8.25;;;23.30;99.90;;;;;;6133784;23;20489;-88
2023/08/24 09:24:03;;;;;;;12.93;8.80;;;23.40;99.90;;;;;;6134035;23;20068;-89
2023/08/24 09:26:42;;;;;;;12.23;8.23;;;23.50;99.90;;;;;;6158791;23;20075;-88
2023/08/24 09:29:15;;;;;;;15.13;8.88;;;23.50;99.90;;;;;;6158223;23;20017;-88
2023/08/24 09:31:43;;;;;;;11.75;8.10;;;23.60;99.90;;;;;;6158026;23;20422;-89
2023/08/24 09:34:09;;;;;;;12.90;8.65;;;23.70;99.90;;;;;;6132852;23;20020;-89
2023/08/24 09:36:36;;;;;;;12.50;8.55;;;23.80;99.90;;;;;;6133327;23;20005;-88
2023/08/24 09:39:06;;;;;;;11.43;8.43;;;23.90;99.90;;;;;;6158462;23;20048;-88
2023/08/24 09:41:40;;;;;;;11.60;7.82;;;24.00;99.90;;;;;;6133520;23;20075;-89
2023/08/24 09:44:06;;;;;;;13.10;8.70;;;24.10;99.90;;;;;;6158525;23;20390;-89
2023/08/24 09:46:32;;;;;;;12.48;7.82;;;24.20;99.90;;;;;;6184416;23;20057;-89
2023/08/24 09:49:00;;;;;;;12.70;8.27;;;24.30;99.90;;;;;;6184813;23;20064;-89
2023/08/24 09:51:29;;;;;;;12.10;8.55;;;24.40;99.90;;;;;;6156830;23;20454;-89
2023/08/24 09:53:59;;;;;;;11.48;8.05;;;24.40;99.90;;;;;;6157791;23;20009;-89
2023/08/24 09:56:28;;;;;;;15.30;8.48;;;24.40;99.90;;;;;;6184209;23;20013;-89
2023/08/24 09:58:55;;;;;;;13.43;7.93;;;24.40;99.90;;;;;;6184378;23;20021;-89
2023/08/24 10:01:21;;;;;;;12.50;7.93;;;24.50;99.90;;;;;;6158744;23;20016;-89
2023/08/24 10:03:51;;;;;;;13.63;9.93;;;24.50;99.90;;;;;;6158475;23;20110;-89
2023/08/24 10:06:20;;;;;;;11.02;8.65;;;24.50;99.90;;;;;;6133853;23;20017;-89
2023/08/24 10:08:52;;;;;;;12.65;8.70;;;24.50;99.90;;;;;;6134084;23;20021;-89
2023/08/24 10:11:25;;;;;;;13.48;8.02;;;24.40;99.90;;;;;;6133529;23;20063;-89
2023/08/24 10:13:57;;;;;;;12.10;8.88;;;24.50;99.90;;;;;;6157805;23;20018;-89
2023/08/24 10:16:24;;;;;;;13.52;9.65;;;24.50;99.90;;;;;;6157970;23;20020;-89
2023/08/24 10:18:51;;;;;;;13.80;8.95;;;24.40;99.90;;;;;;6132218;23;20616;-89
2023/08/24 10:21:18;;;;;;;17.25;10.40;;;24.50;99.90;;;;;;6158118;23;20041;-89
2023/08/24 10:23:45;;;;;;;12.52;9.10;;;24.50;99.90;;;;;;6157664;23;20005;-89
2023/08/24 10:26:13;;;;;;;12.65;9.45;;;24.50;99.90;;;;;;6133369;23;20009;-89
2023/08/24 10:28:39;;;;;;;12.30;8.82;;;24.50;99.90;;;;;;6158059;23;20020;-89
2023/08/24 10:31:06;;;;;;;13.82;9.48;;;24.50;99.90;;;;;;6132847;23;20407;-89
2023/08/24 10:33:34;;;;;;;14.07;9.73;;;24.50;99.90;;;;;;6157880;23;20088;-89
2023/08/24 10:35:59;;;;;;;12.55;9.25;;;24.50;99.90;;;;;;6157981;23;20537;-89
2023/08/24 10:38:29;;;;;;;11.15;9.27;;;24.40;99.90;;;;;;6156967;23;20013;-89
2023/08/24 10:41:04;;;;;;;12.27;9.25;;;24.40;99.90;;;;;;6157740;23;20024;-89
2023/08/24 10:43:29;;;;;;;15.40;9.85;;;24.40;99.90;;;;;;6133064;23;20017;-89
2023/08/24 10:45:59;;;;;;;13.85;9.52;;;24.50;99.90;;;;;;6157154;23;20020;-89
2023/08/24 10:48:41;;;;;;;17.33;10.27;;;24.40;99.90;;;;;;6184264;23;20032;-89
2023/08/24 10:51:21;;;;;;;13.13;9.63;;;24.50;99.90;;;;;;6157873;23;20390;-89
2023/08/24 10:53:55;;;;;;;12.75;9.43;;;24.50;99.90;;;;;;6156854;23;20241;-89
2023/08/24 10:56:21;;;;;;;14.27;10.02;;;24.50;99.90;;;;;;6132569;23;20012;-89
2023/08/24 10:59:07;;;;;;;37.55;24.73;;;24.50;99.90;;;;;;6156667;23;20059;-89
2023/08/24 11:01:34;;;;;;;32.05;21.13;;;24.50;99.90;;;;;;6132479;23;20359;-88
2023/08/24 11:04:00;;;;;;;24.88;14.77;;;24.60;99.90;;;;;;6156619;23;20016;-87
2023/08/24 11:06:28;;;;;;;12.52;9.15;;;24.60;99.90;;;;;;6131712;23;20035;-87
2023/08/24 11:09:15;;;;;;;13.25;9.10;;;24.70;99.90;;;;;;6156622;23;20009;-87
2023/08/24 11:11:41;;;;;;;14.32;10.50;;;24.70;99.90;;;;;;6156450;23;20009;-86
2023/08/24 11:14:19;;;;;;;13.52;8.80;;;24.80;99.90;;;;;;6156691;23;20326;-86
2023/08/24 11:16:46;;;;;;;15.55;8.98;;;24.90;99.90;;;;;;6132789;23;20009;-86
2023/08/24 11:19:12;;;;;;;12.10;8.70;;;24.90;99.90;;;;;;6157077;23;20020;-86
2023/08/24 11:21:39;;;;;;;13.35;7.55;;;25.00;99.90;;;;;;6157683;23;20012;-86
2023/08/24 11:24:05;;;;;;;12.23;7.30;;;25.00;99.90;;;;;;6132929;23;20067;-86
2023/08/24 11:26:31;;;;;;;10.63;7.50;;;25.00;99.90;;;;;;6157360;23;20093;-86
2023/08/24 11:28:57;;;;;;;11.07;7.63;;;25.10;99.90;;;;;;6156793;23;20064;-86
2023/08/24 11:31:26;;;;;;;13.38;7.97;;;25.20;99.90;;;;;;6131962;23;20017;-86
2023/08/24 11:33:56;;;;;;;10.38;6.95;;;25.20;99.90;;;;;;6157365;23;20009;-86
2023/08/24 11:36:23;;;;;;;10.38;6.85;;;25.20;99.20;;;;;;6156718;23;20016;-86
2023/08/24 11:38:52;;;;;;;11.20;6.60;;;25.20;97.50;;;;;;6131859;23;20017;-86
2023/08/24 11:41:18;;;;;;;11.85;6.80;;;25.20;96.20;;;;;;6132014;23;20013;-86
2023/08/24 11:43:47;;;;;;;10.65;7.10;;;25.20;98.20;;;;;;6157148;23;20024;-86
2023/08/24 11:46:15;;;;;;;12.70;6.88;;;25.20;97.20;;;;;;6157487;23;20013;-86
2023/08/24 11:48:41;;;;;;;11.45;7.15;;;25.20;98.00;;;;;;6132032;23;20070;-86
2023/08/24 11:51:13;;;;;;;11.57;7.90;;;25.20;99.20;;;;;;6156638;23;20084;-86
2023/08/24 11:53:46;;;;;;;11.50;7.55;;;25.30;97.90;;;;;;6131635;23;20020;-86
2023/08/24 11:56:12;;;;;;;12.82;7.05;;;25.30;96.70;;;;;;6156819;23;20403;-86
2023/08/24 11:58:42;;;;;;;12.85;7.53;;;25.30;98.00;;;;;;6155272;23;20442;-85
2023/08/24 12:01:11;;;;;;;13.95;7.57;;;25.30;99.00;;;;;;6131767;23;20096;-86
2023/08/24 12:03:38;;;;;;;10.25;6.93;;;25.20;97.80;;;;;;6132728;23;20017;-86
2023/08/24 12:06:14;;;;;;;11.20;6.57;;;25.20;97.60;;;;;;6132304;23;20035;-86
2023/08/24 12:08:46;;;;;;;10.57;6.50;;;25.20;97.00;;;;;;6131279;23;20017;-87
2023/08/24 12:11:19;;;;;;;12.07;6.82;;;25.20;97.20;;;;;;6156384;23;20009;-86
2023/08/24 12:13:49;;;;;;;10.45;6.18;;;25.20;97.50;;;;;;6156934;23;20036;-86
2023/08/24 12:16:16;;;;;;;9.93;5.95;;;25.20;97.70;;;;;;6130597;23;20013;-86
2023/08/24 12:18:55;;;;;;;9.00;5.47;;;25.20;99.90;;;;;;6155926;23;20055;-86
2023/08/24 12:21:22;;;;;;;9.63;5.80;;;25.20;99.90;;;;;;6131782;23;20459;-86
2023/08/24 12:24:05;;;;;;;11.25;5.65;;;25.20;99.90;;;;;;6132555;23;20036;-87
2023/08/24 12:26:32;;;;;;;10.60;5.95;;;25.30;99.90;;;;;;6132746;23;20012;-86
2023/08/24 12:29:09;;;;;;;11.93;6.43;;;25.40;99.90;;;;;;6132129;23;20018;-87
2023/08/24 12:31:35;;;;;;;11.05;6.55;;;25.50;99.90;;;;;;6156546;23;20092;-87
2023/08/24 12:34:06;;;;;;;12.43;6.57;;;25.60;99.90;;;;;;6157099;23;20092;-87
2023/08/24 12:36:37;;;;;;;12.20;6.75;;;25.70;99.90;;;;;;6131474;23;20063;-87
2023/08/24 12:39:04;;;;;;;10.73;6.82;;;25.90;99.90;;;;;;6132331;23;20027;-87